createdAt,value
2022-08-05T00:02:28.752Z,31.76
2022-08-05T00:06:03.153Z,31.83
2022-08-05T00:08:35.398Z,31.68
2022-08-05T00:11:34.456Z,31.65
2022-08-05T00:14:17.143Z,31.77
2022-08-05T00:17:06.109Z,31.77
2022-08-05T00:20:02.759Z,31.57
2022-08-05T00:22:55.295Z,31.73
2022-08-05T00:25:51.145Z,31.60
2022-08-05T00:28:36.431Z,31.72
2022-08-05T00:31:53.658Z,31.80
2022-08-05T00:34:54.891Z,31.82
2022-08-05T00:37:52.921Z,31.85
2022-08-05T00:40:46.603Z,31.84
2022-08-05T00:43:47.002Z,31.67
2022-08-05T00:46:42.666Z,31.68
2022-08-05T00:49:32.705Z,31.76
2022-08-05T00:52:16.109Z,31.68
2022-08-05T00:54:59.320Z,31.74
2022-08-05T00:57:55.312Z,31.61
2022-08-05T01:00:55.420Z,31.59
2022-08-05T01:03:45.155Z,31.67
2022-08-05T01:06:32.908Z,31.59
2022-08-05T01:09:22.702Z,31.69
2022-08-05T01:12:18.678Z,31.56
2022-08-05T01:15:35.414Z,31.75
2022-08-05T01:18:31.118Z,31.50
2022-08-05T01:21:50.601Z,31.77
2022-08-05T01:24:57.099Z,31.34
2022-08-05T01:27:59.195Z,31.67
2022-08-05T01:30:55.300Z,31.89
2022-08-05T01:33:53.843Z,31.77
2022-08-05T01:36:47.008Z,31.89
2022-08-05T01:39:47.303Z,31.35
2022-08-05T01:42:33.091Z,30.91
2022-08-05T01:45:24.106Z,31.56
2022-08-05T01:48:10.445Z,31.87
2022-08-05T01:51:12.425Z,31.70
2022-08-05T01:54:04.638Z,31.87
2022-08-05T01:58:29.705Z,32.05
2022-08-05T02:00:12.062Z,31.90
2022-08-05T02:03:24.286Z,31.97
2022-08-05T02:06:37.409Z,31.85
2022-08-05T02:09:21.146Z,31.86
2022-08-05T02:12:36.701Z,31.98
2022-08-05T02:15:25.369Z,32.05
2022-08-05T02:18:48.908Z,32.29
2022-08-05T02:21:46.658Z,32.27
2022-08-05T02:24:45.644Z,32.45
2022-08-05T02:27:59.332Z,32.46
2022-08-05T02:31:04.304Z,32.49
2022-08-05T02:33:57.557Z,32.61
2022-08-05T02:36:52.085Z,32.63
2022-08-05T02:39:41.159Z,32.64
2022-08-05T02:42:36.003Z,32.72
2022-08-05T02:45:27.241Z,32.66
2022-08-05T02:48:18.121Z,32.30
2022-08-05T02:51:01.533Z,32.43
2022-08-05T02:53:54.831Z,32.79
2022-08-05T02:56:37.688Z,32.99
2022-08-05T02:59:47.822Z,33.27
2022-08-05T03:02:51.670Z,33.40
2022-08-05T03:06:56.029Z,33.03
2022-08-05T03:08:44.342Z,32.89
2022-08-05T03:11:54.769Z,33.29
2022-08-05T03:14:31.372Z,33.78
2022-08-05T03:17:13.357Z,33.41
2022-08-05T03:20:02.358Z,33.66
2022-08-05T03:22:51.332Z,33.50
2022-08-05T03:26:05.064Z,32.82
2022-08-05T03:28:43.538Z,33.40
2022-08-05T03:31:56.032Z,33.20
2022-08-05T03:34:35.106Z,33.51
2022-08-05T03:37:24.535Z,33.26
2022-08-05T03:40:24.608Z,33.45
2022-08-05T03:43:59.219Z,33.34
2022-08-05T03:46:22.361Z,33.75
2022-08-05T03:49:08.370Z,33.74
2022-08-05T03:52:37.588Z,33.55
2022-08-05T03:56:04.332Z,33.20
2022-08-05T03:58:30.054Z,32.63
2022-08-05T04:01:23.173Z,32.84
2022-08-05T04:04:22.334Z,32.74
2022-08-05T04:07:09.544Z,33.06
2022-08-05T04:09:58.105Z,32.94
2022-08-05T04:15:32.845Z,32.83
2022-08-05T04:18:22.502Z,32.72
2022-08-05T04:21:14.318Z,32.14
2022-08-05T04:24:19.565Z,32.15
2022-08-05T04:27:11.338Z,32.50
2022-08-05T04:30:03.776Z,32.92
2022-08-05T04:32:45.365Z,32.93
2022-08-05T04:36:10.945Z,32.60
2022-08-05T04:38:39.661Z,32.83
2022-08-05T04:41:36.707Z,31.98
2022-08-05T04:44:21.518Z,31.89
2022-08-05T04:47:20.225Z,32.16
2022-08-05T04:50:11.202Z,32.09
2022-08-05T04:53:00.396Z,32.31
2022-08-05T04:56:14.768Z,32.33
2022-08-05T04:59:21.840Z,32.66
2022-08-05T05:02:36.620Z,32.37
2022-08-05T05:05:32.340Z,32.15
2022-08-05T05:08:30.144Z,32.46
2022-08-05T05:11:15.295Z,32.58
2022-08-05T05:14:05.079Z,32.23
2022-08-05T05:16:50.603Z,32.45
2022-08-05T05:19:44.423Z,32.57
2022-08-05T05:22:29.626Z,32.16
2022-08-05T05:25:18.088Z,32.37
2022-08-05T05:28:07.152Z,32.41
2022-08-05T05:30:56.095Z,32.34
2022-08-05T05:33:59.157Z,32.44
2022-08-05T05:36:42.475Z,32.45
2022-08-05T05:39:31.628Z,32.49
2022-08-05T05:42:17.444Z,32.19
2022-08-05T05:45:09.088Z,32.06
2022-08-05T05:48:05.512Z,31.98
2022-08-05T05:50:56.178Z,31.84
2022-08-05T05:53:54.092Z,31.88
2022-08-05T05:56:47.446Z,31.71
2022-08-05T05:59:40.389Z,31.69
2022-08-05T06:02:32.352Z,31.81
2022-08-05T06:05:32.022Z,31.53
2022-08-05T06:08:32.372Z,31.80
2022-08-05T06:11:15.371Z,30.44
2022-08-05T06:14:05.151Z,29.96
2022-08-05T06:16:47.814Z,29.62
2022-08-05T06:19:36.096Z,29.57
2022-08-05T06:22:18.369Z,29.06
2022-08-05T06:25:24.934Z,28.94
2022-08-05T06:28:12.076Z,28.55
2022-08-05T06:31:11.231Z,28.65
2022-08-05T06:34:07.509Z,28.55
2022-08-05T06:36:58.780Z,28.64
2022-08-05T06:39:48.184Z,28.51
2022-08-05T06:42:30.437Z,28.56
2022-08-05T06:45:44.091Z,28.33
2022-08-05T06:48:55.797Z,28.43
2022-08-05T06:51:31.488Z,28.42
2022-08-05T06:54:20.326Z,28.17
2022-08-05T06:57:57.900Z,28.54
2022-08-05T07:00:11.316Z,28.55
2022-08-05T07:03:01.121Z,28.52
2022-08-05T07:05:55.939Z,28.62
2022-08-05T07:08:55.143Z,28.61
2022-08-05T07:11:49.471Z,28.58
2022-08-05T07:14:54.051Z,28.32
2022-08-05T07:17:58.778Z,28.59
2022-08-05T07:20:45.481Z,28.41
2022-08-05T07:23:34.078Z,28.06
2022-08-05T07:26:22.541Z,28.39
2022-08-05T07:29:11.322Z,28.78
2022-08-05T07:32:01.334Z,28.66
2022-08-05T07:34:57.995Z,28.74
2022-08-05T07:37:40.245Z,28.33
2022-08-05T07:40:36.118Z,28.61
2022-08-05T07:43:20.801Z,28.44
2022-08-05T07:46:18.929Z,28.65
2022-08-05T07:49:08.750Z,28.34
2022-08-05T07:51:57.331Z,28.15
2022-08-05T07:54:49.080Z,28.07
2022-08-05T07:57:52.308Z,28.16
2022-08-05T08:00:41.378Z,28.38
2022-08-05T08:03:44.321Z,28.35
2022-08-05T08:06:28.203Z,27.99
2022-08-05T08:09:17.063Z,27.71
2022-08-05T08:12:27.272Z,27.92
2022-08-05T08:15:15.269Z,28.19
2022-08-05T08:18:09.714Z,27.98
2022-08-05T08:21:04.028Z,27.99
2022-08-05T08:24:02.892Z,28.16
2022-08-05T08:26:52.964Z,28.13
2022-08-05T08:30:06.460Z,28.04
2022-08-05T08:32:44.550Z,28.07
2022-08-05T08:35:35.136Z,28.01
2022-08-05T08:38:35.876Z,28.15
2022-08-05T08:41:52.199Z,28.04
2022-08-05T08:45:20.709Z,27.96
2022-08-05T08:48:06.028Z,27.89
2022-08-05T08:51:22.465Z,27.98
2022-08-05T08:53:58.363Z,27.75
2022-08-05T08:56:49.446Z,28.12
2022-08-05T08:59:33.777Z,27.87
2022-08-05T09:02:26.610Z,28.08
2022-08-05T09:05:17.233Z,28.38
2022-08-05T09:08:13.323Z,28.21
2022-08-05T09:10:57.190Z,28.16
2022-08-05T09:14:10.204Z,28.34
2022-08-05T09:16:55.375Z,28.72
2022-08-05T09:20:01.639Z,28.56
2022-08-05T09:23:18.794Z,28.72
2022-08-05T09:26:22.181Z,28.58
2022-08-05T09:29:18.396Z,28.73
2022-08-05T09:32:50.253Z,28.28
2022-08-05T09:35:30.321Z,28.50
2022-08-05T09:38:18.158Z,28.59
2022-08-05T09:41:16.344Z,28.88
2022-08-05T09:43:58.793Z,29.03
2022-08-05T09:46:51.767Z,28.76
2022-08-05T09:50:00.934Z,29.19
2022-08-05T09:52:52.910Z,29.09
2022-08-05T09:55:56.403Z,29.14
2022-08-05T09:58:42.061Z,28.65
2022-08-05T10:01:32.275Z,29.16
2022-08-05T10:04:29.377Z,29.21
2022-08-05T10:07:20.405Z,29.32
2022-08-05T10:10:28.145Z,29.38
2022-08-05T10:13:15.309Z,29.40
2022-08-05T10:16:04.749Z,29.16
2022-08-05T10:18:50.198Z,29.36
2022-08-05T10:21:35.264Z,29.36
2022-08-05T10:24:29.073Z,29.53
2022-08-05T10:27:18.625Z,29.80
2022-08-05T10:31:20.214Z,29.63
2022-08-05T10:33:18.086Z,29.53
2022-08-05T10:36:08.111Z,29.50
2022-08-05T10:38:53.872Z,29.83
2022-08-05T10:41:52.068Z,29.67
2022-08-05T10:44:42.578Z,30.07
2022-08-05T10:47:26.634Z,30.03
2022-08-05T10:50:32.977Z,29.91
2022-08-05T10:53:49.097Z,30.09
2022-08-05T10:56:53.127Z,30.20
2022-08-05T11:00:04.430Z,30.33
2022-08-05T11:02:50.640Z,30.00
2022-08-05T11:05:33.810Z,29.86
2022-08-05T11:08:37.250Z,29.90
2022-08-05T11:11:53.627Z,30.12
2022-08-05T11:17:58.705Z,29.68
2022-08-05T11:20:46.369Z,29.52
2022-08-05T11:23:33.157Z,29.61
2022-08-05T11:26:40.473Z,29.80
2022-08-05T11:29:41.578Z,29.75
2022-08-05T11:32:44.102Z,29.57
2022-08-05T11:36:02.775Z,30.02
2022-08-05T11:38:58.820Z,30.15
2022-08-05T11:42:01.296Z,30.05
2022-08-05T11:44:54.367Z,30.19
2022-08-05T11:47:48.255Z,30.22
2022-08-05T11:50:39.360Z,29.61
2022-08-05T11:53:28.413Z,30.09
2022-08-05T11:56:23.306Z,30.06
2022-08-05T11:59:50.017Z,30.23
2022-08-05T12:02:40.367Z,30.06
2022-08-05T12:05:39.637Z,29.90
2022-08-05T12:08:25.330Z,29.69
2022-08-05T12:11:24.309Z,30.11
2022-08-05T12:14:17.274Z,29.98
2022-08-05T12:17:00.310Z,30.17
2022-08-05T12:20:25.469Z,29.91
2022-08-05T12:23:20.378Z,29.91
2022-08-05T12:26:09.020Z,29.70
2022-08-05T12:28:51.481Z,29.99
2022-08-05T12:31:49.729Z,30.15
2022-08-05T12:34:48.293Z,30.14
2022-08-05T12:37:38.714Z,30.16
2022-08-05T12:40:26.825Z,30.00
2022-08-05T12:43:20.599Z,30.08
2022-08-05T12:46:04.460Z,29.99
2022-08-05T12:48:53.058Z,30.08
2022-08-05T12:52:10.707Z,30.15
2022-08-05T12:54:45.209Z,30.15
2022-08-05T12:57:27.779Z,30.32
2022-08-05T13:02:02.133Z,30.27
2022-08-05T13:03:48.712Z,30.05
2022-08-05T13:06:38.057Z,30.23
2022-08-05T13:09:33.411Z,30.10
2022-08-05T13:12:30.300Z,30.15
2022-08-05T13:15:24.466Z,30.25
2022-08-05T13:18:18.879Z,30.10
2022-08-05T13:21:02.374Z,30.11
2022-08-05T13:23:53.053Z,29.89
2022-08-05T13:26:43.304Z,29.72
2022-08-05T13:29:37.762Z,29.57
2022-08-05T13:32:33.009Z,29.76
2022-08-05T13:35:31.423Z,29.58
2022-08-05T13:38:31.028Z,29.88
2022-08-05T13:41:18.454Z,29.83
2022-08-05T13:44:07.327Z,29.75
2022-08-05T13:47:02.456Z,29.60
2022-08-05T13:49:57.801Z,30.04
2022-08-05T13:52:40.298Z,29.85
2022-08-05T13:55:40.802Z,29.63
2022-08-05T13:58:30.767Z,29.70
2022-08-05T14:01:13.465Z,29.62
2022-08-05T14:04:20.311Z,29.61
2022-08-05T14:07:24.835Z,29.62
2022-08-05T14:10:28.443Z,29.63
2022-08-05T14:13:25.165Z,29.81
2022-08-05T14:16:17.007Z,29.46
2022-08-05T14:19:08.088Z,29.80
2022-08-05T14:22:10.156Z,29.58
2022-08-05T14:24:54.049Z,29.66
2022-08-05T14:27:47.400Z,29.58
2022-08-05T14:30:30.110Z,29.49
2022-08-05T14:33:22.743Z,29.47
2022-08-05T14:36:05.806Z,29.35
2022-08-05T14:38:58.382Z,29.40
2022-08-05T14:42:16.790Z,29.15
2022-08-05T14:45:00.319Z,28.94
2022-08-05T14:48:02.993Z,29.08
2022-08-05T14:50:50.502Z,28.90
2022-08-05T14:53:33.293Z,28.91
2022-08-05T14:56:26.616Z,29.15
2022-08-05T14:59:15.234Z,28.99
2022-08-05T15:01:57.886Z,28.78
2022-08-05T15:04:47.700Z,29.19
2022-08-05T15:08:12.274Z,29.34
2022-08-05T15:10:40.212Z,29.19
2022-08-05T15:13:46.085Z,29.31
2022-08-05T15:16:45.047Z,29.25
2022-08-05T15:19:29.579Z,29.45
2022-08-05T15:22:19.055Z,29.41
2022-08-05T15:25:11.490Z,29.39
2022-08-05T15:27:54.833Z,29.50
2022-08-05T15:30:47.042Z,29.62
2022-08-05T15:34:19.468Z,29.61
2022-08-05T15:36:44.377Z,29.67
2022-08-05T15:41:02.715Z,29.68
2022-08-05T15:42:56.640Z,29.72
2022-08-05T15:45:44.173Z,29.84
2022-08-05T15:48:27.456Z,29.84
2022-08-05T15:51:16.187Z,29.78
2022-08-05T15:54:08.286Z,29.70
2022-08-05T15:56:50.796Z,29.69
2022-08-05T15:59:40.049Z,29.62
2022-08-05T16:02:29.648Z,29.55
2022-08-05T16:05:17.329Z,29.56
2022-08-05T16:08:02.600Z,29.31
2022-08-05T16:10:44.613Z,29.46
2022-08-05T16:13:35.444Z,29.38
2022-08-05T16:16:29.911Z,29.41
2022-08-05T16:19:25.598Z,29.52
2022-08-05T16:22:34.424Z,29.55
2022-08-05T16:25:16.268Z,29.55
2022-08-05T16:28:05.988Z,29.54
2022-08-05T16:30:55.045Z,29.51
2022-08-05T16:33:44.296Z,29.52
2022-08-05T16:36:42.819Z,29.42
2022-08-05T16:40:06.543Z,29.51
2022-08-05T16:42:35.375Z,29.39
2022-08-05T16:46:04.965Z,29.42
2022-08-05T16:48:33.282Z,29.50
2022-08-05T16:51:23.057Z,29.57
2022-08-05T16:54:16.055Z,29.57
2022-08-05T16:57:22.290Z,29.59
2022-08-05T17:00:11.170Z,29.54
2022-08-05T17:03:00.112Z,29.56
2022-08-05T17:05:42.348Z,29.56
2022-08-05T17:08:35.903Z,29.64
2022-08-05T17:11:25.933Z,29.60
2022-08-05T17:14:34.114Z,29.72
2022-08-05T17:17:42.321Z,29.63
2022-08-05T17:20:25.059Z,29.52
2022-08-05T17:24:03.358Z,29.54
2022-08-05T17:26:17.474Z,29.58
2022-08-05T17:29:07.446Z,29.55
2022-08-05T17:31:58.434Z,29.61
2022-08-05T17:34:49.252Z,29.68
2022-08-05T17:37:41.948Z,29.64
2022-08-05T17:40:33.335Z,29.63
2022-08-05T17:43:16.206Z,29.62
2022-08-05T17:46:05.298Z,29.59
2022-08-05T17:48:55.323Z,29.59
2022-08-05T17:51:40.422Z,29.70
2022-08-05T17:54:31.299Z,29.68
2022-08-05T17:57:20.084Z,29.78
2022-08-05T18:00:05.856Z,29.63
2022-08-05T18:02:55.076Z,29.76
2022-08-05T18:05:37.740Z,29.84
2022-08-05T18:08:35.045Z,29.93
2022-08-05T18:11:24.026Z,29.86
2022-08-05T18:14:20.730Z,29.88
2022-08-05T18:18:00.903Z,29.90
2022-08-05T18:20:29.481Z,29.87
2022-08-05T18:23:13.802Z,29.85
2022-08-05T18:26:03.080Z,29.91
2022-08-05T18:28:47.876Z,29.79
2022-08-05T18:31:37.342Z,29.86
2022-08-05T18:34:40.867Z,29.83
2022-08-05T18:37:34.682Z,29.89
2022-08-05T18:40:34.425Z,30.00
2022-08-05T18:43:24.875Z,29.99
2022-08-05T18:46:20.635Z,29.84
2022-08-05T18:49:21.128Z,30.05
2022-08-05T18:52:32.916Z,30.06
2022-08-05T18:55:17.610Z,30.08
2022-08-05T18:58:06.086Z,29.92
2022-08-05T19:00:48.912Z,30.17
2022-08-05T19:03:55.614Z,30.25
2022-08-05T19:06:44.856Z,30.33
2022-08-05T19:09:39.041Z,30.05
2022-08-05T19:12:22.843Z,30.13
2022-08-05T19:15:57.677Z,30.25
2022-08-05T19:18:29.008Z,30.02
2022-08-05T19:21:18.326Z,30.14
2022-08-05T19:24:05.997Z,30.17
2022-08-05T19:26:57.108Z,30.03
2022-08-05T19:29:47.121Z,30.19
2022-08-05T19:32:38.340Z,30.25
2022-08-05T19:35:21.704Z,30.27
2022-08-05T19:38:10.313Z,30.28
2022-08-05T19:40:55.780Z,30.20
2022-08-05T19:44:04.088Z,30.12
2022-08-05T19:46:57.060Z,30.05
2022-08-05T19:49:39.329Z,30.26
2022-08-05T19:52:32.522Z,30.20
2022-08-05T19:56:15.093Z,30.11
2022-08-05T19:58:28.639Z,30.02
2022-08-05T20:01:27.229Z,30.27
2022-08-05T20:04:10.442Z,30.30
2022-08-05T20:06:59.113Z,30.32
2022-08-05T20:09:53.721Z,30.02
2022-08-05T20:12:46.440Z,29.99
2022-08-05T20:15:52.305Z,29.87
2022-08-05T20:18:39.303Z,30.19
2022-08-05T20:21:23.701Z,30.19
2022-08-05T20:24:12.328Z,30.18
2022-08-05T20:26:58.648Z,29.99
2022-08-05T20:29:57.455Z,30.10
2022-08-05T20:32:45.162Z,29.80
2022-08-05T20:35:34.091Z,29.98
2022-08-05T20:38:35.686Z,30.01
2022-08-05T20:41:27.179Z,30.15
2022-08-05T20:44:30.689Z,29.93
2022-08-05T20:47:20.325Z,30.13
2022-08-05T20:50:15.597Z,30.11
2022-08-05T20:53:06.044Z,30.18
2022-08-05T20:56:08.285Z,29.74
2022-08-05T20:59:00.108Z,30.04
2022-08-05T21:02:00.383Z,29.93
2022-08-05T21:04:42.811Z,29.99
2022-08-05T21:07:45.693Z,29.75
2022-08-05T21:10:33.845Z,29.81
2022-08-05T21:13:26.138Z,29.69
2022-08-05T21:16:09.081Z,29.89
2022-08-05T21:19:04.095Z,30.01
2022-08-05T21:21:50.991Z,29.86
2022-08-05T21:24:40.058Z,30.06
2022-08-05T21:27:27.380Z,30.03
2022-08-05T21:30:17.421Z,30.04
2022-08-05T21:32:59.711Z,30.10
2022-08-05T21:35:55.754Z,30.04
2022-08-05T21:38:47.386Z,30.11
2022-08-05T21:41:34.080Z,30.03
2022-08-05T21:44:27.047Z,29.83
2022-08-05T21:47:32.795Z,29.91
2022-08-05T21:50:20.091Z,29.80
2022-08-05T21:53:08.474Z,29.83
2022-08-05T21:56:16.710Z,29.94
2022-08-05T21:58:59.372Z,30.01
2022-08-05T22:01:56.324Z,30.05
2022-08-05T22:04:38.641Z,29.89
2022-08-05T22:07:40.186Z,30.02
2022-08-05T22:10:29.417Z,29.76
2022-08-05T22:14:19.827Z,29.79
2022-08-05T22:16:42.032Z,29.88
2022-08-05T22:20:00.767Z,29.93
2022-08-05T22:22:57.979Z,29.90
2022-08-05T22:26:23.092Z,29.98
2022-08-05T22:29:06.374Z,29.84
2022-08-05T22:31:59.541Z,29.66
2022-08-05T22:34:44.372Z,29.87
2022-08-05T22:37:58.249Z,29.89
2022-08-05T22:40:36.802Z,29.94
2022-08-05T22:43:36.544Z,29.91
2022-08-05T22:46:26.052Z,29.95
2022-08-05T22:49:23.480Z,29.94
2022-08-05T22:52:30.280Z,29.80
2022-08-05T22:55:21.736Z,29.86
2022-08-05T22:58:11.725Z,29.83
2022-08-05T23:00:56.901Z,29.67
2022-08-05T23:03:58.249Z,29.69
2022-08-05T23:06:41.327Z,29.55
2022-08-05T23:09:57.437Z,29.68
2022-08-05T23:12:33.655Z,29.73
2022-08-05T23:15:26.914Z,29.78
2022-08-05T23:18:24.149Z,29.83
2022-08-05T23:21:13.069Z,29.88
2022-08-05T23:23:58.625Z,29.90
2022-08-05T23:26:47.066Z,29.96
2022-08-05T23:29:29.515Z,29.94
2022-08-05T23:32:23.250Z,29.93
2022-08-05T23:35:06.660Z,30.02
2022-08-05T23:37:55.112Z,30.06
2022-08-05T23:40:38.250Z,29.97
2022-08-05T23:44:04.517Z,30.10
2022-08-05T23:46:37.474Z,29.95
2022-08-05T23:49:33.740Z,29.93
2022-08-05T23:52:36.205Z,29.82
2022-08-05T23:55:39.054Z,29.95
2022-08-05T23:58:31.714Z,29.98
